Pagrindinis puslapis
METAR-TAF:

METAR-TAF

Oro uostai :

Nadis, Fidžis

platuma: 17-45S, ilguma: 177-27E, Aukštis: 13 m

Dabartinis oras

Ataskaita buvo paskelbta 52 minutes, ne 21:00 UTC
Vėjas 5 kt iš Rytų/Pietryčių
Temperatūra 30°C
Drėgmė 59%
Slėgis 1009 hPa
Matomumas 10 km arba daugiau
Išsisklaidę debesys ne aukštis 3000 ft

METAR: NFFN 202100Z 12005KT 9999 SCT030 30/21 Q1009 NOSIG

Laikas: 09:52 (21:52 UTC)

Prognozė

Ataskaita buvo paskelbta 4 valandos ir 22 minutes, ne 17:30 UTC
Prognozė galioja nuo 20 metu 18 UTC su 21 metu 18 UTC
Vėjas 5 kt iš Rytų
Matomumas 10 km arba daugiau
Išsisklaidę debesys ne aukštis 4800 ft
Tapsmas
nuo 20 metu 23 UTC su 21 metu 01 UTC
Vėjas 12 kt iš Šiaurės Vakarų
Tikimybė 30% :
Laikinai
nuo 21 metu 03 UTC su 21 metu 06 UTC
Matomumas: 5000 m
Su prošvaistėmis ne aukštis 1800 ft
lietus
Tapsmas
nuo 21 metu 04 UTC su 21 metu 06 UTC
Vėjas 8 kt iš Pietryčių

TAF: NFFN 201730Z 2018/2118 10005KT 9999 SCT28 SCT048 BECMG 2023/2101 31012KT PROB30 TEMPO 2103/2106 SHRA 5000 BKN018 BECMG 2104/2106 13008KT

Orai ataskaitas ir orų prognozės (METAR, TAF).

turimą stotys yra geltonos ir raudonos taškus žemėlapyje.

Perkelti pele per norėdami pamatyti stoties vardą.

Tada spustelėkite, norėdami matyti oro stebėjimo ir prognozės.

Norėdami pakeisti žemėlapį: spustelėkite ant žalios mygtukų su juodo kryžiaus žemyn,; žalią mygtuką su brūkšneliu, jei norite nutolinti; arba žalių rodyklių gretimoms žemėlapius.


METAR-TAF: